Latest Coastal Weather Observations for Hogan Island

IDT60701

Issued at 10:21 pm EDT Tuesday 31 March 2015 (issued every 10 minutes, with the page automatically refreshed every 10 minutes)

About coastal observations | Map of coastal stations | Coastal observations for TAS | Marine services | Other Formats
Station Details ID: 200838 Name: HOGAN ISLAND Lat: -39.22 Lon: 146.98 Height: 116.0 m
Data from the previous 72 hours. | See also: Recent months at Hogan Island
Date/Time
EDT
Temp

°C
Wind Pressure Rain
since 9am
mm
Weather Cloud Vis
km
Sea
Height
m
Swell
Dir
 
Speed
knots
Gust
knots
hPa Trend Height
m
Period
s
Dir
31/10:00pm 15.7 NE 13 14 1023.6 - 0.0 - - - - - - -
31/09:30pm 15.8 NE 13 15 1023.6 - 0.0 - - - - - - -
31/09:00pm 15.5 NE 12 15 1023.5 - 0.0 - - - - - - -
31/08:30pm 15.6 ENE 13 14 1023.7 - 0.0 - - - - - - -
31/08:00pm 15.4 ENE 11 12 1023.8 - 0.0 - - - - - - -
31/07:30pm 15.3 ENE 10 11 1023.7 - 0.0 - - - - - - -
31/07:00pm 15.6 E 9 11 1023.5 - 0.0 - - - - - - -
31/06:30pm 16.2 E 8 9 1023.7 - 0.0 - - - - - - -
31/06:00pm 17.3 E 8 9 1023.4 - 0.0 - - - - - - -
31/05:30pm 17.6 E 8 9 1023.6 - 0.0 - - - - - - -
31/05:00pm 18.2 ENE 8 9 1023.8 - 0.0 - - - - - - -
31/04:30pm 18.7 ENE 8 10 1023.7 - 0.0 - - - - - - -
31/04:00pm 18.8 ENE 6 8 1024.3 - 0.0 - - - - - - -
31/03:30pm 18.8 ENE 6 9 1024.2 - 0.0 - - - - - - -
31/03:00pm 19.2 NNE 6 9 1024.2 - 0.0 - - - - - - -
31/02:30pm 19.7 N 7 11 1024.5 - 0.0 - - - - - - -
31/02:00pm 21.1 N 7 10 1024.9 - 0.0 - - - - - - -
31/01:30pm 20.7 N 9 11 1025.2 - 0.0 - - - - - - -
31/01:00pm 19.6 N 9 13 1025.6 - 0.0 - - - - - - -
31/12:30pm 19.5 N 9 12 1025.9 - 0.0 - - - - - - -
31/12:00pm 19.2 N 7 9 1026.3 - 0.0 - - - - - - -
31/11:30am 18.9 NNW 7 8 1026.9 - 0.0 - - - - - - -
31/11:00am 18.3 WNW 6 7 1027.1 - 0.0 - - - - - - -
31/10:30am 18.0 NW 5 6 1027.1 - 0.0 - - - - - - -
31/10:00am 17.3 WNW 4 5 1027.2 - 0.0 - - - - - - -
31/09:30am 17.2 W 4 5 1027.1 - 0.0 - - - - - - -
31/09:00am 16.4 W 5 5 1026.9 - 0.0 - - - - - - -
31/08:30am 15.3 W 6 7 1026.8 - 0.0 - - - - - - -
31/08:00am 14.7 WNW 6 7 1026.4 - 0.0 - - - - - - -
31/07:30am 14.3 WNW 6 6 1026.0 - 0.0 - - - - - - -
31/07:00am 14.1 NW 5 6 1025.9 - 0.0 - - - - - - -
31/06:30am 14.4 NNW 5 7 1025.7 - 0.0 - - - - - - -
31/06:00am 14.5 NW 7 8 1025.4 - 0.0 - - - - - - -
31/05:30am 14.8 NW 9 11 1025.5 - 0.0 - - - - - - -
31/05:00am 14.8 NW 10 13 1025.3 - 0.0 - - - - - - -
31/04:30am 14.8 NW 11 16 1025.3 - 0.0 - - - - - - -
31/04:00am 15.1 NW 12 15 1025.3 - 0.0 - - - - - - -
31/03:30am 15.2 NNW 11 13 1025.4 - 0.0 - - - - - - -
31/03:00am 15.1 NW 8 10 1025.5 - 0.0 - - - - - - -
31/02:30am 15.3 WNW 11 12 1025.7 - 0.0 - - - - - - -
31/02:00am 15.0 WNW 11 14 1025.9 - 0.0 - - - - - - -
31/01:30am 15.2 W 9 11 1025.9 - 0.0 - - - - - - -
31/01:00am 15.4 W 11 13 1026.0 - 0.0 - - - - - - -
31/12:30am 15.2 W 10 12 1025.9 - 0.0 - - - - - - -
31/12:00am 15.2 W 11 12 1026.0 - 0.0 - - - - - - -
 
Date/Time
EDT
Temp

°C
Wind Pressure Rain
since 9am
mm
Weather Cloud Vis
km
Sea
Height
m
Swell
Dir
 
Speed
knots
Gust
knots
hPa Trend Height
m
Period
s
Dir
30/11:30pm 15.1 W 12 15 1026.2 - 0.0 - - - - - - -
30/11:00pm 15.3 W 13 16 1026.3 - 0.0 - - - - - - -
30/10:30pm 15.4 W 14 15 1026.2 - 0.0 - - - - - - -
30/10:00pm 15.5 W 13 16 1026.1 - 0.0 - - - - - - -
30/09:30pm 15.3 W 12 14 1026.0 - 0.0 - - - - - - -
30/09:00pm 15.3 W 14 16 1025.8 - 0.0 - - - - - - -
30/08:30pm 15.5 WSW 15 17 1025.6 - 0.0 - - - - - - -
30/08:00pm 15.4 WSW 14 16 1025.3 - 0.0 - - - - - - -
30/07:30pm 15.6 W 15 17 1024.9 - 0.0 - - - - - - -
30/07:00pm 15.9 W 14 17 1024.6 - 0.0 - - - - - - -
30/06:30pm 16.6 WSW 14 16 1024.3 - 0.0 - - - - - - -
30/06:00pm 16.8 WSW 17 20 1023.7 - 0.0 - - - - - - -
30/05:30pm 17.7 WSW 19 22 1023.5 - 0.0 - - - - - - -
30/05:00pm 18.2 WSW 20 23 1023.4 - 0.0 - - - - - - -
30/04:30pm 18.5 WSW 20 23 1023.3 - 0.0 - - - - - - -
30/04:00pm 19.0 W 19 22 1023.3 - 0.0 - - - - - - -
30/03:30pm 19.2 W 19 22 1023.4 - 0.0 - - - - - - -
30/03:00pm 19.6 W 20 22 1023.2 - 0.0 - - - - - - -
30/02:30pm 19.2 W 19 22 1023.6 - 0.0 - - - - - - -
30/02:00pm 19.3 W 20 22 1023.7 - 0.0 - - - - - - -
30/01:30pm 19.2 W 19 22 1023.9 - 0.0 - - - - - - -
30/01:00pm 19.0 W 18 20 1024.0 - 0.0 - - - - - - -
30/12:30pm 18.8 W 17 19 1024.2 - 0.0 - - - - - - -
30/12:00pm 18.7 W 16 19 1024.1 - 0.0 - - - - - - -
30/11:30am 18.3 W 17 20 1024.3 - 0.0 - - - - - - -
30/11:00am 17.8 W 16 19 1024.5 - 0.0 - - - - - - -
30/10:30am 17.3 WNW 12 15 1024.4 - 0.0 - - - - - - -
30/10:00am 16.5 W 16 19 1024.1 - 0.0 - - - - - - -
30/09:30am 16.4 WNW 14 17 1023.9 - 0.0 - - - - - - -
30/09:00am 16.0 W 13 16 1023.4 - 0.0 - - - - - - -
30/08:30am 15.5 WNW 14 16 1023.4 - 0.0 - - - - - - -
30/08:00am 15.2 WNW 13 16 1023.2 - 0.0 - - - - - - -
30/07:30am 14.9 WNW 14 16 1022.8 - 0.0 - - - - - - -
30/07:00am 14.9 WNW 13 17 1022.7 - 0.0 - - - - - - -
30/06:30am 14.8 WNW 14 17 1022.4 - 0.0 - - - - - - -
30/06:00am 14.9 WNW 14 17 1022.0 - 0.0 - - - - - - -
30/05:30am 14.9 WNW 15 18 1022.1 - 0.0 - - - - - - -
30/05:00am 14.8 WNW 15 17 1022.1 - 0.0 - - - - - - -
30/04:30am 14.8 WNW 15 17 1022.1 - 0.0 - - - - - - -
30/04:00am 14.8 WNW 17 19 1022.2 - 0.0 - - - - - - -
30/03:30am 14.8 WNW 16 19 1022.4 - 0.0 - - - - - - -
30/03:00am 14.8 WNW 14 17 1022.4 - 0.0 - - - - - - -
30/02:30am 14.8 NW 12 15 1022.7 - 0.0 - - - - - - -
30/02:00am 15.0 WNW 12 15 1022.7 - 0.0 - - - - - - -
30/01:30am 15.0 NW 12 18 1022.8 - 0.0 - - - - - - -
30/01:00am 15.3 WNW 14 17 1022.8 - 0.0 - - - - - - -
30/12:30am 15.3 WNW 14 16 1022.9 - 0.0 - - - - - - -
30/12:00am 15.4 WNW 13 17 1022.9 - 0.0 - - - - - - -
 
Date/Time
EDT
Temp

°C
Wind Pressure Rain
since 9am
mm
Weather Cloud Vis
km
Sea
Height
m
Swell
Dir
 
Speed
knots
Gust
knots
hPa Trend Height
m
Period
s
Dir
29/11:30pm 15.2 W 17 19 1023.1 - 0.0 - - - - - - -
29/11:00pm 15.2 W 16 18 1023.2 - 0.0 - - - - - - -
29/10:30pm 15.2 W 16 19 1022.9 - 0.0 - - - - - - -
29/10:00pm 15.2 W 16 19 1022.8 - 0.0 - - - - - - -
29/09:30pm 15.1 W 16 18 1022.7 - 0.0 - - - - - - -
29/09:00pm 15.2 W 17 21 1022.2 - 0.0 - - - - - - -
29/08:30pm 15.2 WSW 19 21 1022.1 - 0.0 - - - - - - -
29/08:00pm 15.3 W 20 24 1021.8 - 0.0 - - - - - - -
29/07:30pm 15.4 W 22 24 1021.3 - 0.0 - - - - - - -
29/07:00pm 15.7 W 23 27 1021.0 - 0.0 - - - - - - -
29/06:30pm 16.2 W 25 28 1020.7 - 0.0 - - - - - - -
29/06:00pm 16.9 W 23 26 1020.3 - 0.0 - - - - - - -
29/05:30pm 17.5 W 22 26 1020.7 - 0.0 - - - - - - -
29/05:00pm 17.7 W 22 25 1020.7 - 0.0 - - - - - - -
29/04:30pm 18.2 W 21 25 1020.6 - 0.0 - - - - - - -
29/04:00pm 18.1 W 22 25 1020.7 - 0.0 - - - - - - -
29/03:30pm 18.7 W 22 26 1020.7 - 0.0 - - - - - - -
29/03:00pm 18.4 W 24 27 1020.6 - 0.0 - - - - - - -
29/02:30pm 18.3 W 23 26 1020.8 - 0.0 - - - - - - -
29/02:00pm 18.6 W 20 23 1021.1 - 0.0 - - - - - - -
29/01:30pm 18.6 W 20 23 1021.2 - 0.0 - - - - - - -
29/01:00pm 17.8 W 19 23 1021.5 - 0.0 - - - - - - -
29/12:30pm 16.9 WNW 19 22 1021.6 - 0.0 - - - - - - -
29/12:00pm 16.5 WNW 16 20 1021.5 - 0.0 - - - - - - -
29/11:30am 16.5 WNW 18 22 1021.7 - 0.0 - - - - - - -
29/11:00am 15.7 WNW 17 20 1021.7 - 0.0 - - - - - - -
29/10:30am 15.2 WNW 18 21 1021.8 - 0.0 - - - - - - -
29/10:00am 15.7 WNW 16 19 1021.7 - 0.0 - - - - - - -
29/09:30am 15.2 WNW 15 19 1021.5 - 0.0 - - - - - - -
29/09:00am 14.7 WNW 17 19 1021.2 - 0.2 - - - - - - -
29/08:30am 14.7 WNW 17 19 1021.4 - 0.2 - - - - - - -
29/08:00am 14.4 WNW 16 18 1021.3 - 0.2 - - - - - - -
29/07:30am 14.4 WNW 16 19 1021.0 - 0.2 - - - - - - -
29/07:00am 14.5 WNW 18 20 1020.9 - 0.2 - - - - - - -
29/06:30am 14.5 WNW 17 19 1020.6 - 0.2 - - - - - - -
29/06:00am 14.6 WNW 17 20 1020.0 - 0.2 - - - - - - -
29/05:30am 14.5 WNW 15 19 1020.0 - 0.2 - - - - - - -
29/05:00am 14.5 WNW 12 16 1020.0 - 0.2 - - - - - - -
29/04:30am 14.6 WNW 15 17 1019.6 - 0.2 - - - - - - -
29/04:00am 14.6 WNW 15 19 1019.6 - 0.2 - - - - - - -
29/03:30am 14.4 WNW 18 21 1019.9 - 0.2 - - - - - - -
29/03:00am 14.4 WNW 18 22 1020.1 - 0.2 - - - - - - -
29/02:30am 14.4 WNW 17 21 1020.6 - 0.2 - - - - - - -
29/02:00am 14.1 W 16 19 1020.9 - 0.2 - - - - - - -
29/01:30am 13.9 W 13 16 1021.2 - 0.2 - - - - - - -
29/01:00am 13.5 W 13 15 1021.3 - 0.2 - - - - - - -
29/12:30am 13.6 WSW 15 18 1021.5 - 0.2 - - - - - - -
29/12:00am 14.1 W 17 19 1021.4 - 0.2 - - - - - - -
 
Date/Time
EDT
Temp

°C
Wind Pressure Rain
since 9am
mm
Weather Cloud Vis
km
Sea
Height
m
Swell
Dir
 
Speed
knots
Gust
knots
hPa Trend Height
m
Period
s
Dir
28/11:30pm 14.0 W 16 19 1021.8 - 0.2 - - - - - - -
28/11:00pm 13.8 W 18 20 1022.0 - 0.2 - - - - - - -
28/10:30pm 13.7 W 19 23 1022.0 - 0.2 - - - - - - -

Other Formats:

Comma delimited format used in spreadsheet applications
http://www.bom.gov.au/fwo/IDT60701/IDT60701.94949.axf

JavaScript Object Notation format (JSON) in row-major order
http://www.bom.gov.au/fwo/IDT60701/IDT60701.94949.json